createdAt,value
2022-09-09T00:02:37.694Z,101446.19
2022-09-09T00:06:01.681Z,101506.66
2022-09-09T00:09:20.985Z,101452.28
2022-09-09T00:12:44.312Z,101508.47
2022-09-09T00:16:21.069Z,101443.56
2022-09-09T00:20:02.475Z,101459.91
2022-09-09T00:23:21.572Z,101461.19
2022-09-09T00:26:32.200Z,101511.28
2022-09-09T00:29:44.606Z,101474.09
2022-09-09T00:32:51.401Z,101480.91
2022-09-09T00:36:04.983Z,101476.66
2022-09-09T00:39:37.840Z,101509.25
2022-09-09T00:42:47.897Z,101454.69
2022-09-09T00:46:14.086Z,101525.78
2022-09-09T00:49:47.675Z,101483.78
2022-09-09T00:53:05.063Z,101501.25
2022-09-09T00:56:22.562Z,101529.34
2022-09-09T00:59:52.762Z,101504.63
2022-09-09T01:03:26.253Z,101510.91
2022-09-09T01:06:36.282Z,101518.19
2022-09-09T01:10:01.088Z,101484.59
2022-09-09T01:13:12.959Z,101560.03
2022-09-09T01:16:19.705Z,101554.31
2022-09-09T01:19:41.162Z,101518.16
2022-09-09T01:23:00.570Z,101528.03
2022-09-09T01:26:10.155Z,101548.97
2022-09-09T01:29:19.168Z,101493.44
2022-09-09T01:32:44.866Z,101547.66
2022-09-09T01:36:16.739Z,101503.50
2022-09-09T01:39:26.364Z,101498.06
2022-09-09T01:42:51.769Z,101546.34
2022-09-09T01:46:00.925Z,101504.81
2022-09-09T01:49:09.024Z,101510.91
2022-09-09T01:52:14.244Z,101492.09
2022-09-09T01:55:21.901Z,101524.34
2022-09-09T01:58:36.895Z,101522.97
2022-09-09T02:01:45.058Z,101533.50
2022-09-09T02:05:05.920Z,101515.53
2022-09-09T02:08:34.651Z,101470.38
2022-09-09T02:11:49.941Z,101498.94
2022-09-09T02:15:26.108Z,101466.47
2022-09-09T02:18:37.508Z,101515.06
2022-09-09T02:21:46.258Z,101525.78
2022-09-09T02:24:54.054Z,101465.88
2022-09-09T02:28:03.094Z,101459.13
2022-09-09T02:31:09.095Z,101535.06
2022-09-09T02:34:23.226Z,101489.22
2022-09-09T02:37:35.116Z,101445.47
2022-09-09T02:40:40.262Z,101431.47
2022-09-09T02:43:45.291Z,101465.25
2022-09-09T02:47:14.757Z,101446.16
2022-09-09T02:50:45.875Z,101453.84
2022-09-09T02:54:23.170Z,101513.66
2022-09-09T02:57:34.363Z,101506.50
2022-09-09T03:00:42.506Z,101432.88
2022-09-09T03:03:48.314Z,101438.16
2022-09-09T03:06:54.939Z,101439.47
2022-09-09T03:10:00.240Z,101475.66
2022-09-09T03:13:07.473Z,101446.25
2022-09-09T03:16:17.002Z,101466.78
2022-09-09T03:19:26.402Z,101436.59
2022-09-09T03:22:31.208Z,101423.69
2022-09-09T03:25:37.809Z,101502.75
2022-09-09T03:28:46.741Z,101443.38
2022-09-09T03:31:55.390Z,101386.91
2022-09-09T03:35:00.302Z,101477.41
2022-09-09T03:38:07.043Z,101461.47
2022-09-09T03:41:14.680Z,101441.88
2022-09-09T03:44:20.795Z,101450.47
2022-09-09T03:47:26.179Z,101413.44
2022-09-09T03:50:35.925Z,101429.88
2022-09-09T03:53:41.669Z,101409.66
2022-09-09T03:56:47.592Z,101408.16
2022-09-09T03:59:53.421Z,101409.88
2022-09-09T04:02:59.659Z,101409.13
2022-09-09T04:06:06.626Z,101415.59
2022-09-09T04:09:11.283Z,101393.09
2022-09-09T04:12:16.523Z,101404.03
2022-09-09T04:15:21.314Z,101450.03
2022-09-09T04:18:27.877Z,101422.63
2022-09-09T04:21:33.131Z,101441.03
2022-09-09T04:24:39.088Z,101417.47
2022-09-09T04:27:44.851Z,101447.75
2022-09-09T04:30:50.686Z,101392.75
2022-09-09T04:33:56.065Z,101467.25
2022-09-09T04:37:01.510Z,101446.19
2022-09-09T04:40:07.871Z,101407.44
2022-09-09T04:43:14.700Z,101422.59
2022-09-09T04:46:21.632Z,101383.50
2022-09-09T04:49:27.876Z,101367.25
2022-09-09T04:52:33.611Z,101396.22
2022-09-09T04:55:39.520Z,101394.72
2022-09-09T04:58:45.364Z,101389.56
2022-09-09T05:01:52.387Z,101394.00
2022-09-09T05:04:58.944Z,101442.88
2022-09-09T05:08:08.078Z,101449.84
2022-09-09T05:11:23.710Z,101454.06
2022-09-09T05:14:30.264Z,101412.16
2022-09-09T05:17:35.783Z,101402.31
2022-09-09T05:20:40.433Z,101394.44
2022-09-09T05:23:47.764Z,101413.59
2022-09-09T05:26:52.580Z,101382.47
2022-09-09T05:29:58.898Z,101410.50
2022-09-09T05:33:03.770Z,101404.66
2022-09-09T05:36:11.010Z,101393.88
2022-09-09T05:39:15.771Z,101408.00
2022-09-09T05:42:20.750Z,101396.28
2022-09-09T05:45:25.807Z,101414.94
2022-09-09T05:48:32.365Z,101418.56
2022-09-09T05:51:55.743Z,101409.09
2022-09-09T05:55:01.654Z,101416.34
2022-09-09T05:58:06.953Z,101399.41
2022-09-09T06:01:17.781Z,101414.78
2022-09-09T06:04:24.363Z,101402.38
2022-09-09T06:07:29.569Z,101407.41
2022-09-09T06:10:34.226Z,101403.75
2022-09-09T06:13:41.231Z,101373.16
2022-09-09T06:16:47.152Z,101423.66
2022-09-09T06:19:57.774Z,101409.28
2022-09-09T06:23:02.662Z,101457.44
2022-09-09T06:26:20.084Z,101409.22
2022-09-09T06:29:27.414Z,101435.13
2022-09-09T06:32:32.393Z,101417.72
2022-09-09T06:35:38.127Z,101418.84
2022-09-09T06:38:46.457Z,101456.44
2022-09-09T06:41:54.920Z,101398.59
2022-09-09T06:45:17.972Z,101470.38
2022-09-09T06:48:30.297Z,101426.47
2022-09-09T06:51:38.199Z,101447.50
2022-09-09T06:54:43.805Z,101425.97
2022-09-09T06:57:48.537Z,101417.53
2022-09-09T07:01:09.298Z,101428.56
2022-09-09T07:04:15.989Z,101393.34
2022-09-09T07:07:22.936Z,101394.63
2022-09-09T07:10:28.182Z,101414.84
2022-09-09T07:13:33.876Z,101462.56
2022-09-09T07:16:41.595Z,101448.88
2022-09-09T07:19:47.202Z,101429.03
2022-09-09T07:22:58.156Z,101466.09
2022-09-09T07:26:04.052Z,101437.69
2022-09-09T07:29:10.055Z,101488.19
2022-09-09T07:32:14.796Z,101488.88
2022-09-09T07:35:19.615Z,101448.66
2022-09-09T07:38:24.659Z,101485.47
2022-09-09T07:41:36.891Z,101476.16
2022-09-09T07:44:42.053Z,101473.13
2022-09-09T07:47:52.642Z,101466.88
2022-09-09T07:51:13.662Z,101428.84
2022-09-09T07:54:25.424Z,101488.44
2022-09-09T07:57:34.532Z,101472.06
2022-09-09T08:00:41.928Z,101460.16
2022-09-09T08:03:48.730Z,101483.06
2022-09-09T08:06:58.103Z,101487.66
2022-09-09T08:10:04.510Z,101461.72
2022-09-09T08:13:18.277Z,101457.94
2022-09-09T08:16:33.911Z,101473.72
2022-09-09T08:19:38.912Z,101458.03
2022-09-09T08:22:55.197Z,101468.31
2022-09-09T08:26:07.213Z,101485.41
2022-09-09T08:29:15.505Z,101463.75
2022-09-09T08:32:23.915Z,101479.75
2022-09-09T08:35:29.499Z,101444.91
2022-09-09T08:38:35.575Z,101509.22
2022-09-09T08:41:46.145Z,101508.19
2022-09-09T08:45:22.530Z,101499.22
2022-09-09T08:48:56.101Z,101502.72
2022-09-09T08:52:03.253Z,101465.22
2022-09-09T08:55:41.032Z,101505.19
2022-09-09T08:58:51.286Z,101486.25
2022-09-09T09:02:47.399Z,101457.72
2022-09-09T09:06:24.678Z,101507.16
2022-09-09T09:09:43.145Z,101495.97
2022-09-09T09:12:49.399Z,101473.66
2022-09-09T09:16:04.512Z,101463.50
2022-09-09T09:19:17.443Z,101452.63
2022-09-09T09:22:48.296Z,101505.88
2022-09-09T09:26:01.240Z,101500.06
2022-09-09T09:29:24.143Z,101489.59
2022-09-09T09:32:35.980Z,101483.16
2022-09-09T09:35:44.392Z,101500.50
2022-09-09T09:42:27.701Z,101540.31
2022-09-09T09:46:06.920Z,101526.13
2022-09-09T09:49:12.748Z,101548.00
2022-09-09T09:52:22.542Z,101542.50
2022-09-09T09:55:28.939Z,101544.81
2022-09-09T09:58:36.262Z,101505.84
2022-09-09T10:01:41.009Z,101538.88
2022-09-09T10:04:49.320Z,101566.69
2022-09-09T10:08:30.235Z,101567.91
2022-09-09T10:11:58.042Z,101532.69
2022-09-09T10:15:08.527Z,101566.22
2022-09-09T10:18:28.724Z,101576.75
2022-09-09T10:21:51.635Z,101569.88
2022-09-09T10:25:33.180Z,101574.06
2022-09-09T10:28:54.888Z,101536.66
2022-09-09T10:32:13.528Z,101563.44
2022-09-09T10:35:29.657Z,101586.97
2022-09-09T10:38:50.392Z,101588.44
2022-09-09T10:42:11.666Z,101588.91
2022-09-09T10:45:53.053Z,101604.47
2022-09-09T10:49:22.835Z,101605.00
2022-09-09T10:52:34.020Z,101598.47
2022-09-09T10:55:43.945Z,101594.25
2022-09-09T10:59:11.872Z,101586.47
2022-09-09T11:02:24.353Z,101616.53
2022-09-09T11:05:51.955Z,101605.69
2022-09-09T11:08:58.032Z,101566.59
2022-09-09T11:12:04.292Z,101594.75
2022-09-09T11:15:20.631Z,101623.44
2022-09-09T11:18:26.116Z,101584.81
2022-09-09T11:21:34.000Z,101622.00
2022-09-09T11:24:47.998Z,101553.13
2022-09-09T11:28:01.683Z,101618.00
2022-09-09T11:31:47.049Z,101611.94
2022-09-09T11:34:58.855Z,101598.75
2022-09-09T11:38:27.639Z,101623.34
2022-09-09T11:41:39.460Z,101628.78
2022-09-09T11:44:44.987Z,101588.34
2022-09-09T11:48:02.017Z,101598.84
2022-09-09T11:51:16.053Z,101535.56
2022-09-09T11:54:47.296Z,101607.13
2022-09-09T11:58:06.830Z,101565.91
2022-09-09T12:01:31.872Z,101570.34
2022-09-09T12:05:10.673Z,101616.19
2022-09-09T12:08:24.378Z,101627.53
2022-09-09T12:11:53.581Z,101628.63
2022-09-09T12:15:01.160Z,101634.19
2022-09-09T12:18:17.071Z,101532.91
2022-09-09T12:21:37.769Z,101647.53
2022-09-09T12:25:08.797Z,101639.06
2022-09-09T12:28:43.692Z,101491.22
2022-09-09T12:32:07.370Z,101651.16
2022-09-09T12:35:28.493Z,101624.53
2022-09-09T12:38:38.656Z,101674.28
2022-09-09T12:41:43.585Z,101535.25
2022-09-09T12:45:00.670Z,101632.19
2022-09-09T12:48:17.547Z,101538.75
2022-09-09T12:51:33.999Z,101539.47
2022-09-09T12:54:39.974Z,101532.56
2022-09-09T12:57:45.796Z,101591.63
2022-09-09T13:00:59.363Z,101657.13
2022-09-09T13:04:04.911Z,101547.88
2022-09-09T13:07:12.053Z,101663.97
2022-09-09T13:10:36.172Z,101654.88
2022-09-09T13:13:43.892Z,101608.47
2022-09-09T13:17:05.424Z,101547.84
2022-09-09T13:20:20.869Z,101587.34
2022-09-09T13:23:30.280Z,101649.94
2022-09-09T13:26:36.451Z,101665.97
2022-09-09T13:29:42.903Z,101673.13
2022-09-09T13:32:48.112Z,101616.84
2022-09-09T13:36:08.355Z,101674.28
2022-09-09T13:39:22.373Z,101515.78
2022-09-09T13:42:33.343Z,101663.75
2022-09-09T13:45:41.224Z,101659.09
2022-09-09T13:48:59.300Z,101500.50
2022-09-09T13:52:12.473Z,101614.00
2022-09-09T13:55:17.658Z,101664.31
2022-09-09T13:58:23.497Z,101579.06
2022-09-09T14:01:29.802Z,101595.03
2022-09-09T14:04:37.037Z,101673.44
2022-09-09T14:07:43.748Z,101537.78
2022-09-09T14:10:48.469Z,101679.88
2022-09-09T14:13:53.414Z,101598.88
2022-09-09T14:16:58.162Z,101567.94
2022-09-09T14:20:03.399Z,101597.94
2022-09-09T14:23:08.545Z,101689.72
2022-09-09T14:26:13.283Z,101639.44
2022-09-09T14:29:18.694Z,101687.94
2022-09-09T14:32:23.935Z,101686.09
2022-09-09T14:35:28.915Z,101517.81
2022-09-09T14:38:44.704Z,101597.31
2022-09-09T14:41:49.733Z,101621.19
2022-09-09T14:44:54.853Z,101661.59
2022-09-09T14:48:01.578Z,101660.78
2022-09-09T14:51:12.111Z,101598.34
2022-09-09T14:54:17.259Z,101631.81
2022-09-09T14:57:22.119Z,101704.03
2022-09-09T15:00:27.180Z,101712.00
2022-09-09T15:03:32.132Z,101620.31
2022-09-09T15:06:41.900Z,101719.00
2022-09-09T15:09:46.746Z,101688.13
2022-09-09T15:12:51.478Z,101686.44
2022-09-09T15:15:56.508Z,101662.59
2022-09-09T15:19:03.577Z,101579.81
2022-09-09T15:22:09.286Z,101672.34
2022-09-09T15:25:14.393Z,101722.72
2022-09-09T15:28:19.813Z,101664.53
2022-09-09T15:31:26.263Z,101594.88
2022-09-09T15:34:31.015Z,101653.03
2022-09-09T15:37:35.756Z,101676.03
2022-09-09T15:40:40.547Z,101575.50
2022-09-09T15:43:47.919Z,101714.88
2022-09-09T15:46:55.669Z,101686.63
2022-09-09T15:50:00.700Z,101591.31
2022-09-09T15:53:07.978Z,101639.03
2022-09-09T15:56:12.964Z,101640.81
2022-09-09T15:59:17.985Z,101697.31
2022-09-09T16:02:23.724Z,101733.44
2022-09-09T16:05:28.665Z,101735.22
2022-09-09T16:08:38.425Z,101699.91
2022-09-09T16:11:43.125Z,101641.75
2022-09-09T16:14:47.871Z,101661.16
2022-09-09T16:17:55.530Z,101620.59
2022-09-09T16:21:00.325Z,101622.31
2022-09-09T16:24:06.464Z,101644.44
2022-09-09T16:27:11.457Z,101672.72
2022-09-09T16:30:16.476Z,101726.56
2022-09-09T16:33:20.960Z,101720.41
2022-09-09T16:36:28.007Z,101709.78
2022-09-09T16:39:33.000Z,101703.63
2022-09-09T16:42:39.648Z,101658.59
2022-09-09T16:45:46.447Z,101680.66
2022-09-09T16:48:51.784Z,101716.88
2022-09-09T16:51:59.492Z,101690.38
2022-09-09T16:55:04.456Z,101691.25
2022-09-09T16:58:10.722Z,101719.53
2022-09-09T17:01:16.279Z,101704.53
2022-09-09T17:04:25.445Z,101671.00
2022-09-09T17:07:30.249Z,101723.06
2022-09-09T17:10:34.624Z,101673.63
2022-09-09T17:13:43.574Z,101686.84
2022-09-09T17:16:51.826Z,101713.31
2022-09-09T17:19:56.929Z,101678.94
2022-09-09T17:23:01.580Z,101725.72
2022-09-09T17:26:11.423Z,101674.53
2022-09-09T17:29:16.472Z,101714.19
2022-09-09T17:32:21.128Z,101687.75
2022-09-09T17:35:25.808Z,101690.41
2022-09-09T17:38:31.477Z,101692.19
2022-09-09T17:41:38.312Z,101684.22
2022-09-09T17:44:43.872Z,101723.06
2022-09-09T17:47:49.637Z,101701.88
2022-09-09T17:51:00.696Z,101653.31
2022-09-09T17:54:11.519Z,101654.19
2022-09-09T17:57:17.288Z,101701.88
2022-09-09T18:00:21.509Z,101702.78
2022-09-09T18:03:26.663Z,101625.94
2022-09-09T18:06:37.241Z,101681.56
2022-09-09T18:09:43.508Z,101667.50
2022-09-09T18:12:48.078Z,101670.09
2022-09-09T18:15:53.098Z,101715.16
2022-09-09T18:19:00.219Z,101718.69
2022-09-09T18:22:08.452Z,101716.91
2022-09-09T18:25:12.915Z,101723.06
2022-09-09T18:28:17.370Z,101685.91
2022-09-09T18:31:24.823Z,101694.78
2022-09-09T18:34:31.072Z,101670.94
2022-09-09T18:37:37.038Z,101665.59
2022-09-09T18:40:41.773Z,101714.19
2022-09-09T18:43:46.906Z,101711.56
2022-09-09T18:46:53.366Z,101701.84
2022-09-09T18:49:57.981Z,101699.19
2022-09-09T18:53:02.844Z,101685.03
2022-09-09T18:56:09.978Z,101670.91
2022-09-09T18:59:19.997Z,101692.09
2022-09-09T19:02:24.799Z,101691.22
2022-09-09T19:05:29.542Z,101715.97
2022-09-09T19:08:38.973Z,101669.19
2022-09-09T19:11:44.404Z,101708.91
2022-09-09T19:14:49.396Z,101721.28
2022-09-09T19:17:54.045Z,101666.53
2022-09-09T19:20:58.875Z,101670.06
2022-09-09T19:24:09.872Z,101711.53
2022-09-09T19:27:14.565Z,101645.34
2022-09-09T19:30:19.187Z,101686.84
2022-09-09T19:33:24.022Z,101724.75
2022-09-09T19:36:28.845Z,101723.84
2022-09-09T19:39:35.264Z,101717.66
2022-09-09T19:42:41.632Z,101729.09
2022-09-09T19:45:46.305Z,101677.00
2022-09-09T19:48:51.019Z,101710.59
2022-09-09T19:51:56.762Z,101731.81
2022-09-09T19:55:02.202Z,101728.25
2022-09-09T19:58:08.496Z,101688.56
2022-09-09T20:01:17.833Z,101730.97
2022-09-09T20:04:23.176Z,101693.88
2022-09-09T20:07:27.915Z,101708.00
2022-09-09T20:10:32.824Z,101735.38
2022-09-09T20:13:42.796Z,101713.31
2022-09-09T20:16:47.816Z,101727.44
2022-09-09T20:19:52.627Z,101685.03
2022-09-09T20:22:58.451Z,101708.91
2022-09-09T20:26:14.294Z,101705.38
2022-09-09T20:29:20.913Z,101751.34
2022-09-09T20:32:25.601Z,101717.75
2022-09-09T20:35:30.220Z,101731.88
2022-09-09T20:38:35.284Z,101744.25
2022-09-09T20:41:41.435Z,101721.28
2022-09-09T20:44:46.081Z,101737.16
2022-09-09T20:47:51.382Z,101746.88
2022-09-09T20:50:56.432Z,101748.72
2022-09-09T20:54:04.738Z,101778.72
2022-09-09T20:57:09.625Z,101775.19
2022-09-09T21:00:15.765Z,101747.78
2022-09-09T21:03:20.318Z,101780.50
2022-09-09T21:06:24.969Z,101756.63
2022-09-09T21:09:29.779Z,101746.88
2022-09-09T21:12:34.497Z,101766.13
2022-09-09T21:15:39.050Z,101797.81
2022-09-09T21:18:45.306Z,101792.56
2022-09-09T21:21:50.035Z,101799.50
2022-09-09T21:24:55.333Z,101808.31
2022-09-09T21:28:00.059Z,101802.56
2022-09-09T21:31:06.513Z,101798.78
2022-09-09T21:34:11.267Z,101813.47
2022-09-09T21:37:15.852Z,101768.19
2022-09-09T21:40:21.813Z,101760.69
2022-09-09T21:43:26.464Z,101817.72
2022-09-09T21:46:32.333Z,101812.16
2022-09-09T21:49:37.357Z,101787.19
2022-09-09T21:52:42.249Z,101768.41
2022-09-09T21:55:48.602Z,101815.22
2022-09-09T21:58:58.921Z,101760.53
2022-09-09T22:02:03.852Z,101808.44
2022-09-09T22:05:08.684Z,101782.47
2022-09-09T22:08:15.303Z,101821.44
2022-09-09T22:11:23.242Z,101801.06
2022-09-09T22:14:28.507Z,101821.72
2022-09-09T22:17:33.552Z,101770.44
2022-09-09T22:20:44.835Z,101824.28
2022-09-09T22:23:54.698Z,101815.00
2022-09-09T22:26:59.477Z,101776.13
2022-09-09T22:30:04.476Z,101817.84
2022-09-09T22:33:10.518Z,101782.69
2022-09-09T22:36:15.762Z,101834.72
2022-09-09T22:39:20.481Z,101789.78
2022-09-09T22:42:25.184Z,101827.84
2022-09-09T22:45:29.611Z,101788.63
2022-09-09T22:48:35.630Z,101805.97
2022-09-09T22:51:40.779Z,101746.22
2022-09-09T22:54:46.953Z,101804.44
2022-09-09T22:57:51.738Z,101789.53
2022-09-09T23:01:00.241Z,101774.44
2022-09-09T23:04:05.481Z,101747.91
2022-09-09T23:07:10.437Z,101774.28
2022-09-09T23:10:17.023Z,101790.00
2022-09-09T23:13:21.678Z,101741.53
2022-09-09T23:16:38.307Z,101778.34
2022-09-09T23:19:44.500Z,101758.88
2022-09-09T23:22:49.331Z,101718.19
2022-09-09T23:25:54.106Z,101778.03
2022-09-09T23:29:03.305Z,101753.59
2022-09-09T23:32:08.254Z,101810.38
2022-09-09T23:35:12.901Z,101748.63
2022-09-09T23:38:17.765Z,101738.03
2022-09-09T23:41:22.519Z,101751.88
2022-09-09T23:44:27.540Z,101785.50
2022-09-09T23:47:32.044Z,101739.88
2022-09-09T23:50:36.628Z,101746.09
2022-09-09T23:53:41.887Z,101792.25
2022-09-09T23:56:46.980Z,101760.81
2022-09-09T23:59:51.652Z,101780.94
